Time;durP1;ratioP1;P1;durP2;ratioP2;P2;SDS_P1;SDS_P2;PMS_P1;PMS_P2;Temp;Humidity;BMP_temperature;BMP_pressure;BME280_temperature;BME280_humidity;BME280_pressure;Samples;Min_cycle;Max_cycle;Signal;HPM_P1;HPM_P2
2022/08/25 00:01:19;;;;;;;;;9.25;9.25;;;;;26.59;38.26;100571.94;5052582;28;45502;-74
2022/08/25 00:03:46;;;;;;;;;9.25;9.25;;;;;26.56;38.66;100566.03;5052607;28;47309;-74
2022/08/25 00:06:12;;;;;;;;;12.75;12.75;;;;;26.52;39.09;100563.66;5053870;28;45340;-74
2022/08/25 00:08:39;;;;;;;;;12.25;12.25;;;;;26.49;39.17;100571.22;5035776;28;45452;-74
2022/08/25 00:11:07;;;;;;;;;12.75;12.00;;;;;26.44;40.00;100573.56;5054193;28;45316;-75
2022/08/25 00:13:32;;;;;;;;;15.50;15.50;;;;;26.36;40.53;100577.94;5053196;28;45305;-76
2022/08/25 00:15:58;;;;;;;;;16.50;15.00;;;;;26.24;40.60;100579.28;5068802;28;45230;-73
2022/08/25 00:18:23;;;;;;;;;14.50;14.50;;;;;26.17;40.92;100565.63;5071630;28;45426;-80
2022/08/25 00:20:49;;;;;;;;;16.00;16.00;;;;;26.16;41.37;100571.16;5074674;28;45555;-73
2022/08/25 00:23:14;;;;;;;;;18.00;18.00;;;;;26.07;40.96;100562.19;5073499;27;45411;-74
2022/08/25 00:25:40;;;;;;;;;16.00;16.00;;;;;26.04;41.31;100557.97;5072341;28;46170;-74
2022/08/25 00:28:05;;;;;;;;;16.25;16.25;;;;;26.00;41.70;100561.16;5073758;27;45529;-74
2022/08/25 00:30:30;;;;;;;;;14.00;14.00;;;;;25.93;41.71;100552.88;5073903;27;45720;-74
2022/08/25 00:32:56;;;;;;;;;12.25;12.25;;;;;25.88;41.90;100558.75;5073274;27;45425;-73
2022/08/25 00:35:22;;;;;;;;;17.25;17.25;;;;;25.74;41.86;100538.69;5073457;28;45369;-73
2022/08/25 00:37:48;;;;;;;;;16.25;16.25;;;;;25.79;42.29;100538.16;5072542;28;45399;-72
2022/08/25 00:40:13;;;;;;;;;15.50;15.50;;;;;25.75;42.23;100548.44;5072844;27;45384;-75
2022/08/25 00:42:40;;;;;;;;;16.50;16.50;;;;;25.70;43.00;100550.78;5072567;28;45407;-73
2022/08/25 00:45:07;;;;;;;;;15.50;15.50;;;;;25.66;42.58;100549.41;5073440;27;45330;-72
2022/08/25 00:47:32;;;;;;;;;13.00;13.00;;;;;25.59;42.87;100543.81;5073352;27;45308;-75
2022/08/25 00:50:01;;;;;;;;;17.25;17.00;;;;;25.60;42.95;100547.38;5073253;27;45208;-72
2022/08/25 00:52:31;;;;;;;;;18.75;17.50;;;;;25.56;42.95;100546.84;5075035;27;46557;-74
2022/08/25 00:55:10;;;;;;;;;16.50;16.50;;;;;25.53;43.50;100541.78;5076248;27;45343;-74
2022/08/25 00:57:42;;;;;;;;;15.50;15.50;;;;;25.49;43.21;100538.56;5076214;27;45343;-75
2022/08/25 01:00:15;;;;;;;;;15.75;15.75;;;;;25.47;43.59;100537.88;5076765;27;45416;-74
2022/08/25 01:02:40;;;;;;;;;15.75;15.75;;;;;25.46;43.23;100541.59;5076484;27;46211;-75
2022/08/25 01:05:06;;;;;;;;;11.75;11.75;;;;;25.45;43.24;100539.00;5076334;27;45223;-74
2022/08/25 01:07:32;;;;;;;;;16.50;16.50;;;;;25.45;43.41;100539.00;5076668;27;45364;-75
2022/08/25 01:09:59;;;;;;;;;14.00;14.00;;;;;25.42;43.20;100544.72;5076821;27;45451;-75
2022/08/25 01:12:24;;;;;;;;;13.00;13.00;;;;;25.39;42.50;100540.47;5076906;27;47087;-74
2022/08/25 01:14:51;;;;;;;;;14.75;13.50;;;;;25.38;42.80;100541.47;5076286;27;45373;-74
2022/08/25 01:17:17;;;;;;;;;7.00;7.00;;;;;25.38;42.40;100541.47;5076679;27;45274;-76
2022/08/25 01:19:42;;;;;;;;;14.75;14.75;;;;;25.35;42.78;100541.81;5076918;27;45474;-73
2022/08/25 01:22:09;;;;;;;;;13.75;13.75;;;;;25.34;42.19;100545.50;5076717;27;46120;-75
2022/08/25 01:24:41;;;;;;;;;13.25;13.25;;;;;25.32;42.59;100536.75;5077535;27;45346;-73
2022/08/25 01:27:08;;;;;;;;;16.25;15.75;;;;;25.30;42.76;100549.50;5078561;27;45244;-75
2022/08/25 01:29:34;;;;;;;;;18.00;18.00;;;;;25.28;42.91;100547.00;5077623;27;45419;-75
2022/08/25 01:32:04;;;;;;;;;14.00;14.00;;;;;25.23;42.17;100535.88;5078357;27;47250;-74
2022/08/25 01:34:32;;;;;;;;;14.50;14.50;;;;;25.21;42.80;100538.69;5076063;28;45558;-73
2022/08/25 01:36:59;;;;;;;;;12.50;12.50;;;;;25.19;42.38;100532.63;5076162;27;45557;-73
2022/08/25 01:39:26;;;;;;;;;12.75;12.75;;;;;25.17;42.31;100540.03;5076362;27;45448;-73
2022/08/25 01:42:04;;;;;;;;;11.50;11.50;;;;;25.15;42.34;100542.03;5076260;27;47158;-75
2022/08/25 01:44:30;;;;;;;;;12.25;12.25;;;;;25.14;42.65;100552.97;5076175;27;45404;-74
2022/08/25 01:46:56;;;;;;;;;10.25;10.25;;;;;25.09;41.99;100553.44;5076151;27;45497;-74
2022/08/25 01:49:21;;;;;;;;;9.75;9.75;;;;;25.06;42.68;100548.38;5076536;27;45304;-73
2022/08/25 01:51:54;;;;;;;;;11.00;11.00;;;;;25.06;42.42;100549.22;5076088;27;46544;-75
2022/08/25 01:54:19;;;;;;;;;6.25;6.25;;;;;25.02;42.11;100538.91;5076166;27;45991;-73
2022/08/25 01:56:45;;;;;;;;;11.00;11.00;;;;;24.96;42.22;100534.16;5074557;28;45372;-75
2022/08/25 01:59:14;;;;;;;;;10.25;10.25;;;;;24.97;42.35;100541.25;5076370;27;45424;-73
2022/08/25 02:01:39;;;;;;;;;10.75;10.75;;;;;24.92;42.07;100534.47;5073855;27;48272;-74
2022/08/25 02:04:05;;;;;;;;;10.00;10.00;;;;;24.87;42.06;100527.88;5074546;27;45291;-72
2022/08/25 02:06:32;;;;;;;;;11.50;11.50;;;;;24.87;42.18;100526.03;5075731;27;45448;-75
2022/08/25 02:09:01;;;;;;;;;12.25;12.25;;;;;24.83;42.58;100510.34;5075876;27;45485;-75
2022/08/25 02:11:28;;;;;;;;;11.50;11.50;;;;;24.82;42.28;100505.97;5075514;27;45480;-72
2022/08/25 02:13:54;;;;;;;;;11.75;11.75;;;;;24.80;42.08;100511.53;5075756;27;45331;-74
2022/08/25 02:16:27;;;;;;;;;13.75;13.75;;;;;24.77;42.38;100511.84;5075418;27;45311;-75
2022/08/25 02:18:53;;;;;;;;;11.25;11.25;;;;;24.74;42.20;100512.16;5075986;27;45589;-77
2022/08/25 02:21:18;;;;;;;;;11.50;11.50;;;;;24.69;42.57;100501.00;5075189;27;46421;-74
2022/08/25 02:23:44;;;;;;;;;11.00;11.00;;;;;24.67;42.84;100500.31;5075388;27;45306;-74
2022/08/25 02:26:10;;;;;;;;;12.25;12.25;;;;;24.63;42.88;100502.44;5075905;27;45245;-73
2022/08/25 02:28:36;;;;;;;;;14.50;14.50;;;;;24.61;43.25;100499.94;5075887;27;45369;-74
2022/08/25 02:31:03;;;;;;;;;13.00;13.00;;;;;24.55;43.37;100497.88;5075275;27;45635;-74
2022/08/25 02:33:29;;;;;;;;;13.75;13.75;;;;;24.55;43.74;100497.00;5075517;28;45426;-77
2022/08/25 02:36:00;;;;;;;;;12.25;12.25;;;;;24.50;44.16;100490.25;5074644;27;45321;-75
2022/08/25 02:38:26;;;;;;;;;14.25;13.75;;;;;24.47;44.42;100478.97;5076070;27;45219;-77
2022/08/25 02:40:53;;;;;;;;;15.75;14.00;;;;;24.43;44.66;100480.28;5075157;27;47351;-76
2022/08/25 02:43:18;;;;;;;;;13.50;13.50;;;;;24.40;44.81;100480.59;5075279;27;45285;-74
2022/08/25 02:45:43;;;;;;;;;13.25;13.25;;;;;24.32;44.27;100479.50;5073534;27;45326;-76
2022/08/25 02:48:09;;;;;;;;;13.00;13.00;;;;;24.31;45.26;100480.50;5075280;27;45319;-75
2022/08/25 02:50:34;;;;;;;;;12.50;12.50;;;;;24.26;44.98;100473.91;5074804;27;46195;-76
2022/08/25 02:52:59;;;;;;;;;13.25;13.25;;;;;24.23;44.50;100472.38;5075191;27;45382;-75
2022/08/25 02:55:25;;;;;;;;;12.25;12.25;;;;;24.21;44.44;100467.16;5075140;27;45325;-78
2022/08/25 02:57:50;;;;;;;;;14.25;14.25;;;;;24.19;44.00;100469.16;5075486;27;45566;-75
2022/08/25 03:00:16;;;;;;;;;11.75;11.75;;;;;24.18;44.23;100461.22;5074877;27;45387;-77
2022/08/25 03:02:42;;;;;;;;;10.75;10.50;;;;;24.16;43.98;100465.91;5074727;27;45385;-74
2022/08/25 03:05:10;;;;;;;;;11.00;11.00;;;;;24.14;43.88;100457.16;5075074;27;45353;-75
2022/08/25 03:07:37;;;;;;;;;9.50;9.50;;;;;24.10;43.21;100464.69;5075199;27;45387;-73
2022/08/25 03:10:15;;;;;;;;;12.50;12.50;;;;;24.12;43.10;100465.41;5074700;27;47515;-76
2022/08/25 03:12:41;;;;;;;;;10.25;10.25;;;;;24.06;43.35;100455.25;5074574;27;45465;-75
2022/08/25 03:15:08;;;;;;;;;12.00;12.00;;;;;24.09;43.20;100464.84;5074592;28;45460;-75
2022/08/25 03:17:34;;;;;;;;;10.25;10.25;;;;;24.06;42.85;100464.16;5074749;27;45299;-77
2022/08/25 03:19:59;;;;;;;;;14.00;14.00;;;;;24.03;44.08;100464.47;5074371;27;46078;-74
2022/08/25 03:22:25;;;;;;;;;12.75;12.75;;;;;24.02;44.31;100460.09;5075292;27;45303;-76
2022/08/25 03:24:50;;;;;;;;;12.25;12.25;;;;;24.01;43.50;100460.25;5075125;27;45864;-76
2022/08/25 03:27:16;;;;;;;;;13.50;13.50;;;;;23.95;43.65;100448.22;5075033;27;45610;-76
2022/08/25 03:29:41;;;;;;;;;11.25;11.25;;;;;23.92;43.70;100440.47;5074386;27;46666;-73
2022/08/25 03:32:07;;;;;;;;;8.75;8.75;;;;;23.92;43.96;100452.09;5075570;27;45251;-76
2022/08/25 03:34:33;;;;;;;;;13.00;13.00;;;;;23.90;43.81;100439.78;5076368;27;45222;-76
2022/08/25 03:36:59;;;;;;;;;13.00;13.00;;;;;23.86;44.17;100436.56;5075847;27;45275;-72
2022/08/25 03:39:26;;;;;;;;;13.00;13.00;;;;;23.83;43.79;100428.78;5074560;27;45519;-75
2022/08/25 03:41:52;;;;;;;;;0.00;0.00;;;;;23.81;44.53;100425.41;5077893;27;45436;-74
2022/08/25 03:44:18;;;;;;;;;13.00;13.00;;;;;23.77;44.69;100414.16;5077563;27;45440;-73
2022/08/25 03:46:48;;;;;;;;;12.00;12.00;;;;;23.78;44.94;100418.53;5077544;27;45631;-74
2022/08/25 03:49:17;;;;;;;;;8.75;8.75;;;;;23.73;45.12;100414.59;5077020;27;45291;-73
2022/08/25 03:51:46;;;;;;;;;12.75;12.25;;;;;23.73;45.03;100417.28;5074832;27;45284;-72
2022/08/25 03:54:13;;;;;;;;;13.25;13.25;;;;;23.69;45.40;100414.06;5074821;27;45358;-76
2022/08/25 03:56:39;;;;;;;;;15.00;15.00;;;;;23.65;45.48;100410.00;5074330;27;45364;-76
2022/08/25 03:59:07;;;;;;;;;12.25;12.25;;;;;23.64;44.78;100417.19;5074152;27;46241;-74
2022/08/25 04:01:33;;;;;;;;;17.50;14.50;;;;;23.64;44.58;100411.81;5073124;27;45501;-74
2022/08/25 04:03:58;;;;;;;;;13.25;13.25;;;;;23.60;44.62;100414.97;5074967;27;45308;-73
2022/08/25 04:06:23;;;;;;;;;13.00;13.00;;;;;23.58;44.33;100414.28;5074505;27;45425;-75
2022/08/25 04:08:51;;;;;;;;;13.75;13.75;;;;;23.59;44.52;100437.44;5074683;27;46252;-73
2022/08/25 04:11:20;;;;;;;;;12.25;12.25;;;;;23.58;44.17;100430.38;5074585;27;45199;-75
2022/08/25 04:13:46;;;;;;;;;12.50;12.50;;;;;23.55;44.30;100436.06;5074612;28;45452;-75
2022/08/25 04:16:15;;;;;;;;;12.75;12.75;;;;;23.57;44.09;100439.44;5069182;27;45548;-76
2022/08/25 04:18:41;;;;;;;;;12.75;12.75;;;;;23.55;44.01;100438.75;5049417;28;47303;-78
2022/08/25 04:21:08;;;;;;;;;11.50;11.50;;;;;23.55;44.18;100441.44;5053073;28;45403;-76
2022/08/25 04:23:35;;;;;;;;;14.00;14.00;;;;;23.51;44.11;100435.50;5053594;28;45511;-75
2022/08/25 04:26:01;;;;;;;;;13.50;13.50;;;;;23.51;44.04;100440.03;5052542;28;45605;-76
2022/08/25 04:28:27;;;;;;;;;8.00;8.00;;;;;23.48;43.46;100441.16;5056837;28;46101;-73
2022/08/25 04:30:52;;;;;;;;;11.25;11.25;;;;;23.44;44.03;100439.78;5056857;28;45401;-75
2022/08/25 04:33:17;;;;;;;;;13.75;13.75;;;;;23.46;44.68;100448.53;5056983;28;45377;-75
2022/08/25 04:35:48;;;;;;;;;11.25;11.25;;;;;23.45;44.25;100444.16;5056509;28;45780;-76
2022/08/25 04:38:13;;;;;;;;;13.00;13.00;;;;;23.45;44.18;100447.69;5056809;28;46352;-76
2022/08/25 04:40:38;;;;;;;;;12.00;12.00;;;;;23.44;43.79;100443.31;5056674;28;45258;-76
2022/08/25 04:43:04;;;;;;;;;10.75;10.75;;;;;23.43;44.39;100451.50;5057108;28;45431;-73
2022/08/25 04:45:29;;;;;;;;;12.00;12.00;;;;;23.40;44.26;100454.50;5057366;28;45505;-76
2022/08/25 04:47:59;;;;;;;;;12.50;12.50;;;;;23.42;44.56;100461.41;5056771;28;46060;-77
2022/08/25 04:50:25;;;;;;;;;14.00;14.00;;;;;23.40;44.13;100452.66;5056744;28;45408;-76
2022/08/25 04:52:50;;;;;;;;;13.00;13.00;;;;;23.43;44.67;100464.94;5056724;28;45448;-77
2022/08/25 04:55:17;;;;;;;;;12.25;12.25;;;;;23.39;43.77;100463.53;5056938;28;45440;-77
2022/08/25 04:57:42;;;;;;;;;13.50;13.50;;;;;23.42;44.25;100468.59;5056406;28;46187;-74
2022/08/25 05:00:08;;;;;;;;;14.50;14.50;;;;;23.44;44.11;100477.34;5056171;28;45246;-73
2022/08/25 05:02:33;;;;;;;;;13.00;13.00;;;;;23.42;44.01;100472.16;5056877;28;45326;-75
2022/08/25 05:05:00;;;;;;;;;13.75;13.75;;;;;23.41;44.39;100473.16;5056467;28;45575;-74
2022/08/25 05:07:25;;;;;;;;;16.50;16.50;;;;;23.38;44.42;100476.13;5076266;27;45507;-76
2022/08/25 05:09:50;;;;;;;;;14.00;14.00;;;;;23.37;44.32;100471.75;5076014;27;45381;-77
2022/08/25 05:12:16;;;;;;;;;15.50;15.00;;;;;23.42;44.24;100485.56;5070924;27;45350;-73
2022/08/25 05:14:41;;;;;;;;;14.75;14.75;;;;;23.43;44.18;100484.59;5072053;27;45548;-76
2022/08/25 05:17:06;;;;;;;;;20.75;20.75;;;;;23.42;44.63;100484.72;5056482;27;45351;-78
2022/08/25 05:19:32;;;;;;;;;12.25;12.25;;;;;23.47;44.39;100495.84;5063908;28;45465;-78
2022/08/25 05:21:57;;;;;;;;;15.00;15.00;;;;;23.45;43.99;100496.00;5074386;27;45412;-81
2022/08/25 05:24:23;;;;;;;;;14.75;14.75;;;;;23.49;44.17;100508.16;5074526;28;45529;-79
2022/08/25 05:26:48;;;;;;;;;16.50;16.50;;;;;23.51;44.64;100505.28;5075095;27;46037;-79
2022/08/25 05:29:14;;;;;;;;;14.50;14.50;;;;;23.55;44.21;100508.53;5076731;27;45315;-81
2022/08/25 05:31:39;;;;;;;;;14.75;14.75;;;;;23.54;44.51;100505.00;5076477;27;45307;-77
2022/08/25 05:34:08;;;;;;;;;14.75;14.75;;;;;23.46;44.42;100489.66;5075934;27;45652;-79
2022/08/25 05:36:34;;;;;;;;;19.75;19.75;;;;;23.57;44.64;100510.06;5075368;27;46693;-77
2022/08/25 05:39:00;;;;;;;;;16.00;16.00;;;;;23.54;44.43;100498.81;5074173;27;45469;-78
2022/08/25 05:41:29;;;;;;;;;17.00;17.00;;;;;23.59;44.54;100505.41;5063223;27;45501;-79
2022/08/25 05:43:54;;;;;;;;;13.75;13.75;;;;;23.66;44.36;100502.13;5056217;28;45580;-77
2022/08/25 05:46:21;;;;;;;;;16.25;16.25;;;;;23.73;44.23;100505.88;5063752;28;46215;-74
2022/08/25 05:48:47;;;;;;;;;13.00;13.00;;;;;23.74;44.44;100499.53;5075818;27;45956;-73
2022/08/25 05:51:14;;;;;;;;;14.50;14.50;;;;;23.77;44.27;100501.91;5055436;28;45322;-74
2022/08/25 05:53:42;;;;;;;;;17.25;17.25;;;;;23.78;44.40;100500.91;5069236;27;45505;-73
2022/08/25 05:56:08;;;;;;;;;15.00;15.00;;;;;23.84;43.96;100505.69;5073828;27;46273;-72
2022/08/25 05:58:34;;;;;;;;;14.25;14.25;;;;;23.87;43.56;100499.19;5074651;28;45389;-74
2022/08/25 06:03:46;;;;;;;;;15.50;15.50;;;;;23.91;43.70;100505.94;5075141;27;45303;-75
2022/08/25 06:06:12;;;;;;;;;13.00;13.00;;;;;23.92;43.58;100505.81;5072012;27;46095;-74
2022/08/25 06:08:37;;;;;;;;;14.50;14.50;;;;;23.95;43.97;100507.31;5071783;28;45734;-75
2022/08/25 06:11:03;;;;;;;;;12.25;12.25;;;;;23.97;43.57;100499.13;5071673;27;45486;-75
2022/08/25 06:13:29;;;;;;;;;11.25;11.25;;;;;24.01;42.86;100504.06;5066131;27;45521;-75
2022/08/25 06:15:59;;;;;;;;;13.50;13.50;;;;;24.03;42.77;100499.38;5062337;27;45479;-74
2022/08/25 06:18:25;;;;;;;;;13.00;13.00;;;;;24.07;42.71;100495.41;5070756;28;45540;-75
2022/08/25 06:20:50;;;;;;;;;12.50;12.50;;;;;24.13;43.10;100504.69;5070351;27;45478;-75
2022/08/25 06:23:17;;;;;;;;;15.50;15.50;;;;;24.15;43.29;100489.28;5073864;27;45548;-75
2022/08/25 06:25:48;;;;;;;;;17.75;17.75;;;;;24.18;42.48;100490.78;5074775;27;46230;-74
2022/08/25 06:28:13;;;;;;;;;13.75;13.75;;;;;24.19;42.33;100485.28;5076201;27;45395;-77
2022/08/25 06:30:39;;;;;;;;;12.75;12.75;;;;;24.25;42.26;100491.03;5078071;27;45427;-77
2022/08/25 06:33:04;;;;;;;;;12.75;12.75;;;;;24.26;42.46;100487.34;5078616;27;45595;-75
2022/08/25 06:35:30;;;;;;;;;11.75;11.75;;;;;24.29;41.99;100495.94;5077001;27;46289;-76
2022/08/25 06:37:55;;;;;;;;;13.25;13.25;;;;;24.30;42.36;100486.03;5074043;28;45534;-80
2022/08/25 06:40:21;;;;;;;;;12.75;12.75;;;;;24.31;41.86;100493.09;5075755;27;45440;-78
2022/08/25 06:42:48;;;;;;;;;14.50;14.50;;;;;24.38;41.86;100496.88;5076638;27;45541;-81
2022/08/25 06:45:13;;;;;;;;;11.25;11.25;;;;;24.41;41.47;100499.25;5079029;27;45450;-76
2022/08/25 06:47:38;;;;;;;;;11.50;11.50;;;;;24.33;41.99;100486.56;5079871;27;44901;-78
2022/08/25 06:50:04;;;;;;;;;14.50;14.50;;;;;24.42;42.17;100492.03;5076224;27;45338;-80
2022/08/25 06:52:30;;;;;;;;;14.75;14.75;;;;;24.46;41.99;100499.63;5074162;27;45293;-74
2022/08/25 06:54:55;;;;;;;;;17.75;17.75;;;;;24.51;41.68;100504.56;5073726;27;45711;-74
2022/08/25 06:57:21;;;;;;;;;12.50;12.50;;;;;24.53;41.09;100507.94;5074540;27;45452;-74
2022/08/25 06:59:46;;;;;;;;;13.50;13.50;;;;;24.56;41.58;100510.31;5073018;27;45887;-76
2022/08/25 07:02:11;;;;;;;;;10.50;10.50;;;;;24.60;41.09;100506.31;5075057;27;45603;-74
2022/08/25 07:04:37;;;;;;;;;13.25;13.25;;;;;24.61;41.38;100502.63;5074586;27;46494;-76
2022/08/25 07:07:03;;;;;;;;;15.50;15.50;;;;;24.68;40.64;100507.38;5072708;27;45686;-76
2022/08/25 07:09:29;;;;;;;;;14.25;14.25;;;;;24.69;41.03;100517.97;5069460;27;45515;-74
2022/08/25 07:11:54;;;;;;;;;14.00;14.00;;;;;24.74;40.86;100507.59;5073262;27;45487;-76
2022/08/25 07:14:21;;;;;;;;;12.75;12.75;;;;;24.82;40.98;100514.91;5071844;27;47291;-75
2022/08/25 07:16:46;;;;;;;;;11.00;11.00;;;;;24.89;40.87;100513.28;5073744;27;45482;-73
2022/08/25 07:19:12;;;;;;;;;13.25;13.25;;;;;24.96;40.83;100505.44;5074138;27;45361;-74
2022/08/25 07:21:40;;;;;;;;;15.50;15.50;;;;;24.96;40.76;100494.66;5076159;27;45243;-77
2022/08/25 07:24:08;;;;;;;;;15.75;15.75;;;;;25.12;40.81;100501.16;5074590;28;45490;-76
2022/08/25 07:26:34;;;;;;;;;12.25;12.25;;;;;25.16;40.88;100506.03;5073284;27;45467;-74
2022/08/25 07:29:00;;;;;;;;;12.75;12.50;;;;;25.26;40.51;100508.63;5075711;27;45336;-76
2022/08/25 07:31:26;;;;;;;;;13.25;13.25;;;;;25.29;40.28;100519.06;5076674;28;45509;-75
2022/08/25 07:36:36;;;;;;;;;17.50;17.50;;;;;25.35;40.27;100514.88;5077457;28;45456;-74
2022/08/25 07:39:04;;;;;;;;;14.00;14.00;;;;;25.39;40.20;100521.63;5075178;27;45359;-73
2022/08/25 07:41:30;;;;;;;;;13.50;13.50;;;;;25.38;40.61;100512.72;5078492;27;45348;-73
2022/08/25 07:43:56;;;;;;;;;11.25;11.25;;;;;25.48;40.55;100515.34;5076191;28;47898;-73
2022/08/25 07:46:21;;;;;;;;;14.25;14.25;;;;;25.55;40.35;100520.91;5076721;27;45382;-72
2022/08/25 07:48:46;;;;;;;;;13.00;13.00;;;;;25.64;40.82;100513.72;5077525;27;45272;-76
2022/08/25 07:51:14;;;;;;;;;12.50;12.50;;;;;25.71;40.49;100514.75;5076087;27;45327;-74
2022/08/25 07:53:40;;;;;;;;;13.75;13.75;;;;;25.78;40.51;100512.25;5076217;27;47091;-74
2022/08/25 07:56:10;;;;;;;;;12.00;12.00;;;;;25.86;40.26;100514.13;5076189;28;45190;-73
2022/08/25 07:58:36;;;;;;;;;12.00;12.00;;;;;25.91;40.03;100512.63;5074773;27;45429;-72
2022/08/25 08:01:02;;;;;;;;;14.75;14.75;;;;;25.89;39.77;100498.47;5075100;27;45582;-73
2022/08/25 08:03:28;;;;;;;;;14.50;14.50;;;;;26.08;39.99;100505.41;5078949;28;45410;-77
2022/08/25 08:05:55;;;;;;;;;24.50;24.50;;;;;26.15;39.89;100502.94;5078445;27;45441;-76
2022/08/25 08:08:21;;;;;;;;;13.00;13.00;;;;;26.30;39.41;100507.69;5078188;27;45297;-77
2022/08/25 08:10:46;;;;;;;;;10.75;10.75;;;;;26.46;38.80;100512.22;5078475;27;45328;-76
2022/08/25 08:13:11;;;;;;;;;14.00;14.00;;;;;26.61;39.29;100498.91;5078283;27;45311;-76
2022/08/25 08:15:42;;;;;;;;;11.00;11.00;;;;;26.83;38.39;100502.81;5078264;27;45187;-76
2022/08/25 08:18:09;;;;;;;;;13.75;13.00;;;;;26.98;38.29;100498.41;5079200;27;45428;-77
2022/08/25 08:20:34;;;;;;;;;11.50;11.50;;;;;27.19;38.04;100491.59;5079817;27;45489;-76
2022/08/25 08:23:00;;;;;;;;;12.50;12.50;;;;;27.36;38.00;100497.81;5079518;27;46402;-77
2022/08/25 08:25:26;;;;;;;;;15.75;15.75;;;;;27.51;36.95;100503.34;5080338;27;45296;-73
2022/08/25 08:27:51;;;;;;;;;11.75;11.75;;;;;27.60;36.75;100512.25;5086853;27;45326;-73
2022/08/25 08:30:17;;;;;;;;;14.00;14.00;;;;;27.64;36.35;100510.06;5094473;27;45269;-72
2022/08/25 08:32:43;;;;;;;;;11.75;11.75;;;;;27.67;36.18;100520.50;5087473;27;47767;-73
2022/08/25 08:35:08;;;;;;;;;20.50;20.50;;;;;27.74;35.69;100524.19;5082172;28;45184;-77
2022/08/25 08:37:36;;;;;;;;;14.50;14.50;;;;;27.80;35.24;100546.94;5079728;27;45361;-77
2022/08/25 08:40:04;;;;;;;;;11.25;11.25;;;;;27.82;35.91;100545.78;5080744;27;45425;-76
2022/08/25 08:42:45;;;;;;;;;13.75;13.75;;;;;27.85;35.77;100534.59;5082411;27;45419;-76
2022/08/25 08:45:33;;;;;;;;;13.75;13.25;;;;;27.95;35.90;100515.44;5081815;27;45357;-76
2022/08/25 08:48:25;;;;;;;;;18.25;18.25;;;;;28.08;35.87;100514.88;5083436;27;45331;-77
2022/08/25 08:51:19;;;;;;;;;13.75;13.75;;;;;28.19;35.13;100519.06;5080580;27;45327;-76
2022/08/25 08:53:58;;;;;;;;;11.50;11.50;;;;;28.27;35.50;100528.97;5078975;27;46053;-76
2022/08/25 08:56:37;;;;;;;;;11.00;11.00;;;;;28.28;34.81;100518.00;5079636;27;45241;-77
2022/08/25 08:59:15;;;;;;;;;15.00;15.00;;;;;28.24;34.72;100527.50;5080295;27;45350;-78
2022/08/25 09:01:48;;;;;;;;;12.50;12.50;;;;;28.24;34.65;100530.19;5077659;27;45305;-78
2022/08/25 09:04:38;;;;;;;;;12.00;12.00;;;;;28.29;34.89;100529.63;5078096;27;46181;-74
2022/08/25 09:07:15;;;;;;;;;13.25;13.25;;;;;28.34;34.29;100532.66;5077332;27;45316;-76
2022/08/25 09:09:41;;;;;;;;;12.50;12.50;;;;;28.42;34.34;100538.00;5079546;27;45291;-74
2022/08/25 09:12:36;;;;;;;;;13.75;13.75;;;;;28.45;34.32;100549.47;5077163;27;45386;-77
2022/08/25 09:16:53;;;;;;;;;12.75;12.75;;;;;28.54;34.34;100535.72;5076847;27;46364;-77
2022/08/25 09:18:24;;;;;;;;;14.25;14.25;;;;;28.65;35.14;100522.78;5076549;28;45460;-76
2022/08/25 09:20:57;;;;;;;;;15.25;15.25;;;;;28.70;35.12;100537.44;5076862;27;45224;-76
2022/08/25 09:23:31;;;;;;;;;14.25;14.25;;;;;28.73;36.15;100533.53;5077057;27;45475;-76
2022/08/25 09:26:18;;;;;;;;;17.00;17.00;;;;;28.66;36.38;100536.13;5076480;27;45425;-77
2022/08/25 09:29:06;;;;;;;;;18.75;18.75;;;;;28.59;37.19;100540.56;5076609;27;45453;-76
2022/08/25 09:31:38;;;;;;;;;12.25;12.25;;;;;28.54;36.94;100543.84;5076533;28;45196;-76
2022/08/25 09:34:10;;;;;;;;;19.25;19.25;;;;;28.54;37.16;100540.25;5076262;27;45289;-75
2022/08/25 09:36:35;;;;;;;;;16.50;16.50;;;;;28.54;37.67;100529.44;5076066;27;45593;-74
2022/08/25 09:39:01;;;;;;;;;16.00;16.00;;;;;28.49;37.28;100537.25;5076138;27;45396;-77
2022/08/25 09:41:46;;;;;;;;;16.50;16.50;;;;;28.46;37.45;100540.34;5076067;27;45468;-76
2022/08/25 09:44:26;;;;;;;;;15.00;15.00;;;;;28.40;36.86;100547.31;5076621;27;45379;-77
2022/08/25 09:47:00;;;;;;;;;14.75;14.75;;;;;28.36;37.41;100549.53;5076640;27;46747;-74
2022/08/25 09:49:41;;;;;;;;;17.00;17.00;;;;;28.32;37.12;100545.50;5076371;27;45397;-77
2022/08/25 09:52:30;;;;;;;;;13.50;13.50;;;;;28.35;36.75;100550.56;5075923;27;45278;-77
2022/08/25 09:55:00;;;;;;;;;16.00;16.00;;;;;28.30;37.47;100546.72;5076443;27;45187;-75
2022/08/25 09:57:35;;;;;;;;;18.00;18.00;;;;;28.31;37.35;100548.41;5075779;27;46376;-76
2022/08/25 10:00:13;;;;;;;;;15.00;15.00;;;;;28.39;37.32;100543.75;5075973;27;45341;-76
2022/08/25 10:02:39;;;;;;;;;14.50;14.50;;;;;28.46;37.46;100543.91;5075928;27;45413;-75
2022/08/25 10:05:24;;;;;;;;;19.50;19.50;;;;;28.53;36.95;100536.75;5075989;27;45263;-75
2022/08/25 10:08:23;;;;;;;;;18.25;18.25;;;;;28.65;37.66;100531.75;5076101;27;45338;-72
2022/08/25 10:10:56;;;;;;;;;19.25;19.25;;;;;28.73;37.17;100530.81;5073589;28;45302;-75
2022/08/25 10:13:32;;;;;;;;;19.50;19.50;;;;;28.82;36.28;100528.91;5075574;27;45290;-76
2022/08/25 10:16:12;;;;;;;;;16.50;16.50;;;;;28.88;36.27;100525.47;5075710;27;45387;-76
2022/08/25 10:18:38;;;;;;;;;15.75;15.75;;;;;28.94;36.80;100524.75;5075806;27;46114;-76
2022/08/25 10:21:06;;;;;;;;;13.50;13.50;;;;;29.06;35.87;100524.28;5074238;27;45413;-73
2022/08/25 10:23:35;;;;;;;;;14.75;14.75;;;;;29.09;36.70;100519.31;5076109;27;45386;-76
2022/08/25 10:26:07;;;;;;;;;13.50;13.50;;;;;29.18;36.82;100527.38;5075995;27;46064;-76
2022/08/25 10:29:14;;;;;;;;;15.50;15.00;;;;;29.27;36.45;100518.16;5075842;27;45657;-77
2022/08/25 10:32:10;;;;;;;;;11.50;11.50;;;;;29.34;35.24;100519.06;5086343;27;45152;-75
2022/08/25 10:34:46;;;;;;;;;14.75;14.75;;;;;29.38;35.32;100514.97;5076318;27;46069;-75
2022/08/25 10:37:36;;;;;;;;;13.50;13.50;;;;;29.44;35.48;100499.84;5075750;27;45402;-75
2022/08/25 10:40:08;;;;;;;;;14.75;14.75;;;;;29.54;34.87;100499.56;5075167;27;45416;-76
2022/08/25 10:43:12;;;;;;;;;11.75;11.75;;;;;29.65;34.39;100498.22;5074001;27;45503;-77
2022/08/25 10:45:52;;;;;;;;;12.00;12.00;;;;;29.74;34.20;100489.81;5067517;28;45333;-76
2022/08/25 10:48:30;;;;;;;;;11.50;11.50;;;;;29.83;34.33;100485.13;5074444;27;45249;-75
2022/08/25 10:51:04;;;;;;;;;11.75;11.75;;;;;29.97;33.75;100482.53;5075248;27;46113;-74
2022/08/25 10:53:59;;;;;;;;;12.25;12.25;;;;;30.06;34.25;100485.97;5075161;27;45389;-75
2022/08/25 10:56:36;;;;;;;;;11.00;11.00;;;;;30.13;33.98;100470.63;5075852;27;45306;-75
2022/08/25 10:59:19;;;;;;;;;14.00;14.00;;;;;30.32;33.33;100474.56;5075575;27;45416;-75
2022/08/25 11:01:59;;;;;;;;;13.25;13.25;;;;;30.41;33.34;100478.81;5075429;27;45599;-76
2022/08/25 11:04:36;;;;;;;;;11.50;11.50;;;;;30.44;32.43;100483.84;5075289;27;45347;-76
2022/08/25 11:07:08;;;;;;;;;12.00;12.00;;;;;30.45;32.39;100477.38;5073636;27;45481;-75
2022/08/25 11:09:38;;;;;;;;;12.75;12.75;;;;;30.53;32.16;100472.84;5074109;27;45488;-76
2022/08/25 11:12:17;;;;;;;;;13.25;13.25;;;;;30.65;32.75;100475.91;5074954;28;45456;-76
2022/08/25 11:14:58;;;;;;;;;13.00;13.00;;;;;30.72;32.69;100474.09;5074571;27;45460;-77
2022/08/25 11:17:45;;;;;;;;;11.00;11.00;;;;;30.80;32.76;100473.09;5075073;27;45303;-75
2022/08/25 11:20:16;;;;;;;;;11.00;11.00;;;;;30.88;32.73;100473.78;5073607;27;45387;-75
2022/08/25 11:22:47;;;;;;;;;15.25;15.25;;;;;30.89;32.29;100467.31;5074928;27;45354;-75
2022/08/25 11:25:18;;;;;;;;;18.00;18.00;;;;;31.04;31.75;100478.06;5074969;27;45326;-76